Time;durP1;ratioP1;P1;durP2;ratioP2;P2;SDS_P1;SDS_P2;PMS_P1;PMS_P2;Temp;Humidity;BMP_temperature;BMP_pressure;BME280_temperature;BME280_humidity;BME280_pressure;Samples;Min_cycle;Max_cycle;Signal;HPM_P1;HPM_P2
2021/04/05 00:00:11;;;;;;;21.77;12.73;;;6.20;99.90;;;;;;5013517;28;20803;-79
2021/04/05 00:02:39;;;;;;;22.40;12.97;;;6.10;99.90;;;;;;5014762;28;20291;-79
2021/04/05 00:05:10;;;;;;;19.90;12.53;;;6.10;99.90;;;;;;5015338;28;20295;-79
2021/04/05 00:07:39;;;;;;;18.90;12.30;;;6.10;99.90;;;;;;5027558;28;20612;-79
2021/04/05 00:10:10;;;;;;;21.40;13.00;;;6.20;99.90;;;;;;5033863;28;20286;-79
2021/04/05 00:12:39;;;;;;;20.50;13.37;;;6.20;99.90;;;;;;5031835;28;20287;-79
2021/04/05 00:15:10;;;;;;;24.27;13.80;;;6.20;99.90;;;;;;4998178;28;20238;-79
2021/04/05 00:17:38;;;;;;;21.87;13.87;;;6.20;99.90;;;;;;5014343;28;20620;-79
2021/04/05 00:20:13;;;;;;;21.33;12.63;;;6.20;99.90;;;;;;5013824;28;20263;-80
2021/04/05 00:22:43;;;;;;;24.83;13.33;;;6.20;99.90;;;;;;5014161;28;20239;-79
2021/04/05 00:25:13;;;;;;;23.80;13.70;;;6.20;99.90;;;;;;5014717;28;20244;-79
2021/04/05 00:27:42;;;;;;;23.87;14.63;;;6.20;99.90;;;;;;5014374;28;20255;-80
2021/04/05 00:30:20;;;;;;;21.47;13.13;;;6.20;99.90;;;;;;5013456;28;20245;-79
2021/04/05 00:32:48;;;;;;;23.80;13.97;;;6.20;99.90;;;;;;5013865;28;20295;-79
2021/04/05 00:35:18;;;;;;;21.77;14.40;;;6.30;99.90;;;;;;5014194;28;20299;-79
2021/04/05 00:37:46;;;;;;;25.03;14.73;;;6.20;99.90;;;;;;5014217;28;20241;-79
2021/04/05 00:40:17;;;;;;;23.33;14.33;;;6.30;99.90;;;;;;5013731;28;20313;-79
2021/04/05 00:42:48;;;;;;;23.90;15.13;;;6.30;99.90;;;;;;5012461;28;20299;-79
2021/04/05 00:45:18;;;;;;;20.30;14.73;;;6.30;99.90;;;;;;5014266;28;20782;-79
2021/04/05 00:47:46;;;;;;;24.53;14.97;;;6.30;99.90;;;;;;5012854;28;21362;-80
2021/04/05 00:50:19;;;;;;;27.93;14.63;;;6.30;99.90;;;;;;5013481;28;20873;-78
2021/04/05 00:52:52;;;;;;;20.87;14.87;;;6.30;99.90;;;;;;5024314;28;20241;-79
2021/04/05 00:55:23;;;;;;;24.13;15.43;;;6.30;99.90;;;;;;5030346;28;20267;-79
2021/04/05 00:57:52;;;;;;;23.87;15.60;;;6.30;99.90;;;;;;4993640;28;20291;-79
2021/04/05 01:00:31;;;;;;;31.30;16.13;;;6.30;99.90;;;;;;4992764;28;20718;-79
2021/04/05 01:02:58;;;;;;;26.83;14.73;;;6.30;99.90;;;;;;4994221;28;20229;-78
2021/04/05 01:05:26;;;;;;;29.03;16.70;;;6.30;99.90;;;;;;5022269;28;20477;-79
2021/04/05 01:07:54;;;;;;;25.67;15.57;;;6.30;99.90;;;;;;5033394;28;20294;-79
2021/04/05 01:10:23;;;;;;;22.77;14.73;;;6.40;99.90;;;;;;5033174;28;20327;-79
2021/04/05 01:12:51;;;;;;;21.60;14.70;;;6.40;99.90;;;;;;5033336;28;20232;-79
2021/04/05 01:15:19;;;;;;;24.20;15.37;;;6.40;99.90;;;;;;5033516;28;20259;-79
2021/04/05 01:17:48;;;;;;;24.67;15.43;;;6.40;99.90;;;;;;5048425;28;20240;-80
2021/04/05 01:20:18;;;;;;;24.20;15.33;;;6.40;99.90;;;;;;5032605;28;20251;-79
2021/04/05 01:22:50;;;;;;;24.33;15.43;;;6.40;99.90;;;;;;5028610;28;20278;-79
2021/04/05 01:25:19;;;;;;;23.63;15.90;;;6.40;99.90;;;;;;5011792;28;20240;-79
2021/04/05 01:27:47;;;;;;;23.63;16.20;;;6.40;99.90;;;;;;5028370;28;20724;-79
2021/04/05 01:30:28;;;;;;;23.53;16.20;;;6.40;99.90;;;;;;5013462;28;20257;-79
2021/04/05 01:33:05;;;;;;;25.93;15.43;;;6.40;99.90;;;;;;5013106;28;20237;-79
2021/04/05 01:35:36;;;;;;;28.37;15.90;;;6.40;99.90;;;;;;5013537;28;20611;-79
2021/04/05 01:38:05;;;;;;;24.17;14.73;;;6.40;99.90;;;;;;5012674;28;20267;-79
2021/04/05 01:40:36;;;;;;;27.10;14.97;;;6.40;99.90;;;;;;5027377;28;20647;-79
2021/04/05 01:43:04;;;;;;;28.80;16.03;;;6.40;99.90;;;;;;5033797;28;20237;-79
2021/04/05 01:45:32;;;;;;;23.60;14.67;;;6.40;99.90;;;;;;5014600;28;20297;-79
2021/04/05 01:48:00;;;;;;;23.30;14.00;;;6.40;99.90;;;;;;5013279;28;20257;-79
2021/04/05 01:50:27;;;;;;;22.77;15.60;;;6.40;99.90;;;;;;5013830;28;20237;-79
2021/04/05 01:52:55;;;;;;;23.47;14.63;;;6.40;99.90;;;;;;5013262;28;20240;-79
2021/04/05 01:55:24;;;;;;;23.57;14.33;;;6.50;99.90;;;;;;5028263;28;20575;-79
2021/04/05 01:57:51;;;;;;;21.50;15.07;;;6.50;99.90;;;;;;5011487;28;20504;-79
2021/04/05 02:00:25;;;;;;;24.43;14.60;;;6.50;99.90;;;;;;5012598;28;20267;-79
2021/04/05 02:02:54;;;;;;;22.13;14.37;;;6.50;99.90;;;;;;5018534;28;20232;-79
2021/04/05 02:05:23;;;;;;;25.93;14.70;;;6.50;99.90;;;;;;5012843;28;20272;-79
2021/04/05 02:07:51;;;;;;;28.27;14.40;;;6.50;99.90;;;;;;5012386;28;20237;-80
2021/04/05 02:10:25;;;;;;;27.03;15.10;;;6.50;99.90;;;;;;5012480;28;20272;-79
2021/04/05 02:12:54;;;;;;;24.60;14.73;;;6.50;99.90;;;;;;5012449;28;20237;-80
2021/04/05 02:15:24;;;;;;;21.87;13.77;;;6.50;99.90;;;;;;5012898;28;20345;-79
2021/04/05 02:17:52;;;;;;;26.40;13.83;;;6.50;99.90;;;;;;5015774;28;20237;-79
2021/04/05 02:20:21;;;;;;;22.27;14.07;;;6.50;99.90;;;;;;5015860;28;20918;-79
2021/04/05 02:22:52;;;;;;;24.67;14.43;;;6.50;99.90;;;;;;5014304;28;20264;-79
2021/04/05 02:25:23;;;;;;;30.20;15.20;;;6.50;99.90;;;;;;5015017;28;20713;-79
2021/04/05 02:27:52;;;;;;;28.00;14.00;;;6.50;99.90;;;;;;5015460;28;20245;-79
2021/04/05 02:30:26;;;;;;;23.17;13.40;;;6.50;99.90;;;;;;5016243;28;20249;-79
2021/04/05 02:32:57;;;;;;;26.13;13.83;;;6.60;99.90;;;;;;5015964;28;20236;-79
2021/04/05 02:35:29;;;;;;;24.40;14.67;;;6.50;99.90;;;;;;5016433;28;20269;-78
2021/04/05 02:37:59;;;;;;;24.20;13.83;;;6.50;99.90;;;;;;5019827;28;20229;-78
2021/04/05 02:40:29;;;;;;;27.33;14.23;;;6.50;99.90;;;;;;5008872;28;20229;-79
2021/04/05 02:42:58;;;;;;;27.00;13.70;;;6.50;99.90;;;;;;5017907;28;20245;-79
2021/04/05 02:45:27;;;;;;;26.70;13.57;;;6.50;99.90;;;;;;5015473;28;20229;-79
2021/04/05 02:47:58;;;;;;;21.93;13.27;;;6.50;99.90;;;;;;5015575;28;20264;-80
2021/04/05 02:50:29;;;;;;;28.73;14.90;;;6.60;99.90;;;;;;5015235;28;20700;-80
2021/04/05 02:53:00;;;;;;;26.70;14.00;;;6.50;99.90;;;;;;5016246;28;20724;-79
2021/04/05 02:55:28;;;;;;;23.10;13.80;;;6.60;99.90;;;;;;5031782;28;20507;-79
2021/04/05 02:57:57;;;;;;;21.87;13.30;;;6.50;99.90;;;;;;5017049;28;20264;-79
2021/04/05 03:00:25;;;;;;;28.33;14.23;;;6.50;99.90;;;;;;5027678;28;20315;-80
2021/04/05 03:02:54;;;;;;;25.27;13.97;;;6.50;99.90;;;;;;5036363;28;20312;-79
2021/04/05 03:05:23;;;;;;;24.07;14.00;;;6.50;99.90;;;;;;5036710;28;20282;-78
2021/04/05 03:07:52;;;;;;;22.97;13.80;;;6.40;99.90;;;;;;5030296;28;20225;-78
2021/04/05 03:10:24;;;;;;;29.20;14.30;;;6.40;99.90;;;;;;5015718;28;20307;-79
2021/04/05 03:12:59;;;;;;;25.03;13.43;;;6.40;99.90;;;;;;5015950;28;20232;-78
2021/04/05 03:15:27;;;;;;;26.33;14.67;;;6.40;99.90;;;;;;5015531;28;20237;-79
2021/04/05 03:18:00;;;;;;;28.60;15.20;;;6.30;99.90;;;;;;5015453;28;20233;-79
2021/04/05 03:20:32;;;;;;;24.60;14.57;;;6.30;99.90;;;;;;5014839;28;20269;-79
2021/04/05 03:23:01;;;;;;;33.80;14.80;;;6.30;99.90;;;;;;5015518;28;20637;-79
2021/04/05 03:25:29;;;;;;;30.33;15.43;;;6.30;99.90;;;;;;5016403;28;20245;-78
2021/04/05 03:27:58;;;;;;;27.67;14.77;;;6.30;99.90;;;;;;5013090;28;20315;-79
2021/04/05 03:30:32;;;;;;;28.40;13.87;;;6.30;99.90;;;;;;5029734;28;20271;-79
2021/04/05 03:33:07;;;;;;;29.67;14.63;;;6.30;99.90;;;;;;5015365;28;20291;-79
2021/04/05 03:35:41;;;;;;;23.73;14.80;;;6.30;99.90;;;;;;5016241;28;20704;-79
2021/04/05 03:38:11;;;;;;;30.07;15.10;;;6.30;99.90;;;;;;5014885;28;20236;-77
2021/04/05 03:40:40;;;;;;;25.70;14.77;;;6.30;99.90;;;;;;5014665;28;20331;-79
2021/04/05 03:43:20;;;;;;;29.80;15.00;;;6.30;99.90;;;;;;5014297;28;20642;-80
2021/04/05 03:45:52;;;;;;;28.80;14.03;;;6.30;99.90;;;;;;5015303;28;20771;-79
2021/04/05 03:48:25;;;;;;;28.00;14.93;;;6.30;99.90;;;;;;4995003;28;20246;-79
2021/04/05 03:51:04;;;;;;;25.00;14.40;;;6.30;99.90;;;;;;4994242;28;20781;-79
2021/04/05 03:53:39;;;;;;;23.00;13.47;;;6.30;99.90;;;;;;4995345;28;20253;-78
2021/04/05 03:56:13;;;;;;;26.40;14.60;;;6.30;99.90;;;;;;4995398;28;20775;-78
2021/04/05 03:58:46;;;;;;;22.90;13.27;;;6.30;99.90;;;;;;5026467;28;20790;-79
2021/04/05 04:01:21;;;;;;;14.80;7.60;;;6.20;99.90;;;;;;5013924;28;20244;-79
2021/04/05 04:03:58;;;;;;;7.90;3.70;;;6.00;99.90;;;;;;5013852;28;20716;-79
2021/04/05 04:06:30;;;;;;;4.77;2.40;;;5.80;99.90;;;;;;5014623;28;20359;-79
2021/04/05 04:08:58;;;;;;;3.67;1.73;;;5.60;99.90;;;;;;5013804;28;20882;-80
2021/04/05 04:11:29;;;;;;;6.77;1.90;;;5.50;99.90;;;;;;5028779;28;20230;-79
2021/04/05 04:14:01;;;;;;;3.77;1.50;;;5.40;99.90;;;;;;5014354;28;20482;-80
2021/04/05 04:16:30;;;;;;;3.73;1.13;;;5.30;99.90;;;;;;5014451;28;20233;-79
2021/04/05 04:19:02;;;;;;;1.37;0.80;;;5.20;99.90;;;;;;5013732;28;20569;-80
2021/04/05 04:21:31;;;;;;;2.40;0.90;;;5.20;99.90;;;;;;5013185;28;20486;-79
2021/04/05 04:23:58;;;;;;;2.67;0.93;;;5.20;99.90;;;;;;5014641;28;20670;-78
2021/04/05 04:26:28;;;;;;;3.07;0.90;;;5.20;99.90;;;;;;5013428;28;20484;-79
2021/04/05 04:28:55;;;;;;;2.20;1.10;;;5.20;99.90;;;;;;5013532;28;20285;-79
2021/04/05 04:31:24;;;;;;;1.20;0.90;;;5.20;99.90;;;;;;5012128;28;20795;-79
2021/04/05 04:33:51;;;;;;;1.20;0.67;;;5.20;99.90;;;;;;5014805;28;20589;-79
2021/04/05 04:36:23;;;;;;;2.63;0.80;;;5.20;99.90;;;;;;5014151;28;20236;-79
2021/04/05 04:38:53;;;;;;;1.93;0.80;;;5.10;99.90;;;;;;5016371;28;20245;-79
2021/04/05 04:41:22;;;;;;;1.50;0.70;;;5.20;99.90;;;;;;5012081;28;20493;-79
2021/04/05 04:43:55;;;;;;;1.90;0.83;;;5.10;99.90;;;;;;5014101;28;20533;-79
2021/04/05 04:46:24;;;;;;;2.87;1.00;;;5.10;99.90;;;;;;5028023;28;20233;-79
2021/04/05 04:48:59;;;;;;;2.53;0.70;;;5.00;99.90;;;;;;5011878;28;20660;-79
2021/04/05 04:51:27;;;;;;;3.37;1.07;;;4.90;99.90;;;;;;5011504;28;20922;-79
2021/04/05 04:53:56;;;;;;;4.73;1.10;;;4.90;99.90;;;;;;5013905;28;20472;-79
2021/04/05 04:56:24;;;;;;;1.50;0.73;;;4.90;99.90;;;;;;5028957;28;21037;-79
2021/04/05 04:58:51;;;;;;;3.83;1.10;;;4.90;99.90;;;;;;5022054;28;20639;-78
2021/04/05 05:01:19;;;;;;;6.40;1.10;;;4.90;99.90;;;;;;5011641;28;20245;-79
2021/04/05 05:03:53;;;;;;;6.13;1.90;;;4.90;99.90;;;;;;5013560;28;20574;-80
2021/04/05 05:06:23;;;;;;;5.43;1.20;;;4.90;99.90;;;;;;5012896;28;20491;-79
2021/04/05 05:08:51;;;;;;;7.07;1.77;;;4.90;99.90;;;;;;5000078;28;20240;-79
2021/04/05 05:11:18;;;;;;;6.47;1.60;;;4.90;99.90;;;;;;5023909;28;20552;-78
2021/04/05 05:13:46;;;;;;;9.33;1.50;;;4.90;99.90;;;;;;5012923;28;20494;-78
2021/04/05 05:16:15;;;;;;;9.57;1.73;;;4.90;99.90;;;;;;5012051;28;20504;-78
2021/04/05 05:18:43;;;;;;;7.03;1.80;;;4.80;99.90;;;;;;5011104;28;20491;-79
2021/04/05 05:21:25;;;;;;;8.10;1.60;;;4.80;99.90;;;;;;5012186;28;20866;-79
2021/04/05 05:23:58;;;;;;;5.80;1.17;;;4.80;99.90;;;;;;5013082;28;20264;-79
2021/04/05 05:26:27;;;;;;;7.13;2.10;;;4.70;99.90;;;;;;5029201;28;20506;-79
2021/04/05 05:28:57;;;;;;;5.50;1.50;;;4.60;99.90;;;;;;5017459;28;20736;-79
2021/04/05 05:31:25;;;;;;;8.13;1.30;;;4.60;99.90;;;;;;5013969;28;20479;-79
2021/04/05 05:33:52;;;;;;;10.07;1.50;;;4.50;99.90;;;;;;5009771;28;20534;-79
2021/04/05 05:36:21;;;;;;;9.40;1.50;;;4.40;99.90;;;;;;5011977;28;21002;-79
2021/04/05 05:38:49;;;;;;;6.60;1.57;;;4.40;99.90;;;;;;5010704;28;20476;-79
2021/04/05 05:41:29;;;;;;;6.73;1.90;;;4.40;99.90;;;;;;5012438;28;20492;-79
2021/04/05 05:44:05;;;;;;;9.10;1.60;;;4.30;99.90;;;;;;5013479;28;20486;-79
2021/04/05 05:46:43;;;;;;;8.10;1.43;;;4.20;99.90;;;;;;5012606;28;20480;-79
2021/04/05 05:49:30;;;;;;;11.17;2.00;;;4.10;99.90;;;;;;5012301;28;20881;-79
2021/04/05 05:52:12;;;;;;;9.07;1.60;;;4.10;99.90;;;;;;5018665;28;20486;-79
2021/04/05 05:55:07;;;;;;;9.90;2.00;;;4.10;99.90;;;;;;5036318;28;20573;-79
2021/04/05 05:57:40;;;;;;;12.47;2.17;;;4.10;99.90;;;;;;5036287;28;20244;-79
2021/04/05 06:00:15;;;;;;;9.37;1.87;;;4.10;99.90;;;;;;5030043;28;20581;-79
2021/04/05 06:02:58;;;;;;;9.27;1.80;;;4.10;99.90;;;;;;5014860;28;20455;-79
2021/04/05 06:05:37;;;;;;;12.73;2.27;;;4.10;99.90;;;;;;5015121;28;20467;-79
2021/04/05 06:08:20;;;;;;;9.87;2.77;;;4.10;99.90;;;;;;5016536;28;20490;-79
2021/04/05 06:11:05;;;;;;;7.50;1.70;;;4.10;99.90;;;;;;5014452;28;20486;-80
2021/04/05 06:13:50;;;;;;;7.77;2.77;;;4.10;99.90;;;;;;5016278;28;20244;-80
2021/04/05 06:16:33;;;;;;;8.90;2.00;;;4.00;99.90;;;;;;5015586;28;20486;-79
2021/04/05 06:19:19;;;;;;;8.77;1.50;;;4.00;99.90;;;;;;5015386;28;20479;-79
2021/04/05 06:21:58;;;;;;;10.47;1.47;;;4.00;99.90;;;;;;5015399;28;20890;-78
2021/04/05 06:24:35;;;;;;;7.53;1.70;;;4.00;99.90;;;;;;5016436;28;20832;-79
2021/04/05 06:27:14;;;;;;;12.27;1.63;;;4.00;99.90;;;;;;5035958;28;20489;-80
2021/04/05 06:30:06;;;;;;;8.47;1.30;;;3.90;99.90;;;;;;5012730;28;21197;-79
2021/04/05 06:32:47;;;;;;;8.07;2.30;;;3.90;99.90;;;;;;5008634;28;20510;-79
2021/04/05 06:35:35;;;;;;;9.73;1.70;;;3.80;99.90;;;;;;5014249;28;20494;-79
2021/04/05 06:38:11;;;;;;;10.57;2.50;;;3.90;99.90;;;;;;5015165;28;20541;-79
2021/04/05 06:40:41;;;;;;;8.37;2.17;;;3.90;99.90;;;;;;5015196;28;20484;-79
2021/04/05 06:43:42;;;;;;;7.00;1.30;;;4.00;99.90;;;;;;5016456;28;20515;-79
2021/04/05 06:46:47;;;;;;;10.17;1.97;;;4.00;99.90;;;;;;5013242;28;20471;-80
2021/04/05 06:49:40;;;;;;;9.63;1.73;;;4.00;99.90;;;;;;5012538;28;20563;-79
2021/04/05 06:52:19;;;;;;;13.57;1.80;;;4.00;99.90;;;;;;5002260;28;20530;-79
2021/04/05 06:55:20;;;;;;;7.87;1.30;;;4.10;99.90;;;;;;5002917;28;20470;-78
2021/04/05 06:58:12;;;;;;;6.40;1.50;;;4.00;99.90;;;;;;5013046;28;20479;-80
2021/04/05 07:01:01;;;;;;;9.97;1.80;;;4.00;99.90;;;;;;5004766;28;20471;-80
2021/04/05 07:03:51;;;;;;;7.60;1.77;;;4.00;99.90;;;;;;5012249;28;20479;-79
2021/04/05 07:06:39;;;;;;;9.57;2.20;;;4.10;99.90;;;;;;5013316;28;20503;-79
2021/04/05 07:09:18;;;;;;;5.53;1.13;;;4.10;99.90;;;;;;5027985;28;20499;-79
2021/04/05 07:12:00;;;;;;;7.80;1.93;;;4.20;99.90;;;;;;5012418;28;20517;-79
2021/04/05 07:14:39;;;;;;;9.83;1.37;;;4.20;99.90;;;;;;5013067;28;20481;-79
2021/04/05 07:17:18;;;;;;;4.30;1.40;;;4.30;99.90;;;;;;5008690;28;20491;-79
2021/04/05 07:20:00;;;;;;;8.40;1.53;;;4.30;99.90;;;;;;5008411;28;20493;-79
2021/04/05 07:23:05;;;;;;;8.53;1.43;;;4.30;99.90;;;;;;5012915;28;20482;-79
2021/04/05 07:25:44;;;;;;;9.80;1.73;;;4.20;99.90;;;;;;4928469;29;20609;-79
2021/04/05 07:28:21;;;;;;;5.10;1.10;;;4.00;99.90;;;;;;5000925;28;20501;-79
2021/04/05 07:31:12;;;;;;;11.60;2.40;;;3.60;99.90;;;;;;5009183;28;20498;-79
2021/04/05 07:33:41;;;;;;;7.60;1.80;;;3.50;99.90;;;;;;5017226;28;20464;-79
2021/04/05 07:36:16;;;;;;;7.50;1.77;;;3.50;99.90;;;;;;5012801;28;20547;-78
2021/04/05 07:38:54;;;;;;;9.50;1.43;;;3.70;99.90;;;;;;5009790;28;20970;-79
2021/04/05 07:41:31;;;;;;;7.23;1.63;;;3.80;99.90;;;;;;5015189;28;20595;-79
2021/04/05 07:44:26;;;;;;;8.03;2.47;;;3.90;99.90;;;;;;5032957;28;20478;-79
2021/04/05 07:47:08;;;;;;;11.77;1.57;;;3.90;99.90;;;;;;5011636;28;20861;-79
2021/04/05 07:49:49;;;;;;;7.03;1.20;;;3.90;99.90;;;;;;5014140;28;20471;-79
2021/04/05 07:52:25;;;;;;;6.47;1.17;;;4.10;99.90;;;;;;5011316;28;20495;-79
2021/04/05 07:54:58;;;;;;;5.50;1.47;;;4.20;99.90;;;;;;5011671;28;20498;-79
2021/04/05 07:57:33;;;;;;;6.63;1.60;;;4.60;99.90;;;;;;5016477;28;20482;-79
2021/04/05 08:00:11;;;;;;;2.90;0.90;;;4.80;99.90;;;;;;5008664;28;20517;-79
2021/04/05 08:02:49;;;;;;;2.33;0.80;;;4.60;99.90;;;;;;5011346;28;20506;-78
2021/04/05 08:05:37;;;;;;;5.47;1.40;;;4.40;99.90;;;;;;5014237;28;20482;-79
2021/04/05 08:08:28;;;;;;;2.37;0.50;;;4.10;99.90;;;;;;5008402;28;20903;-79
2021/04/05 08:11:08;;;;;;;2.90;1.10;;;3.90;99.90;;;;;;5007834;28;20541;-79
2021/04/05 08:13:45;;;;;;;4.73;0.90;;;3.50;99.90;;;;;;5010236;28;20641;-79
2021/04/05 08:16:22;;;;;;;2.47;0.73;;;3.50;99.90;;;;;;5010429;28;20490;-79
2021/04/05 08:19:03;;;;;;;3.08;1.00;;;3.60;99.90;;;;;;4602216;28;10001387;-79
2021/04/05 08:21:35;;;;;;;4.82;0.88;;;3.40;99.90;;;;;;1726775;28;10002096;-79
2021/04/05 08:24:27;;;;;;;5.33;0.77;;;3.40;99.90;;;;;;5004323;28;20263;-79
2021/04/05 08:27:03;;;;;;;6.00;1.27;;;3.30;99.90;;;;;;5004098;28;20554;-79
2021/04/05 08:29:44;;;;;;;7.97;1.40;;;3.30;99.90;;;;;;5006223;28;20499;-79
2021/04/05 08:32:25;;;;;;;6.87;1.27;;;3.30;99.90;;;;;;5006697;28;20470;-79
2021/04/05 08:35:18;;;;;;;5.63;1.40;;;3.30;99.90;;;;;;5013181;28;20551;-79
2021/04/05 08:37:58;;;;;;;2.37;0.60;;;3.10;99.90;;;;;;5001663;28;21063;-79
2021/04/05 08:40:31;;;;;;;2.43;0.40;;;2.80;99.90;;;;;;5006787;28;20477;-79
2021/04/05 08:43:11;;;;;;;6.07;1.10;;;2.70;99.90;;;;;;5008873;28;20484;-79
2021/04/05 08:45:46;;;;;;;1.27;0.93;;;2.70;99.90;;;;;;5027187;28;20544;-79
2021/04/05 08:48:18;;;;;;;4.50;0.90;;;2.60;99.90;;;;;;5008102;28;20894;-79
2021/04/05 08:51:00;;;;;;;3.57;1.00;;;3.00;99.90;;;;;;5007813;28;20473;-79
2021/04/05 08:53:29;;;;;;;4.60;1.30;;;3.20;99.90;;;;;;5003618;28;20490;-79
2021/04/05 08:55:58;;;;;;;4.23;1.10;;;3.20;99.90;;;;;;5004304;28;20490;-79
2021/04/05 08:58:33;;;;;;;5.03;1.10;;;3.10;99.90;;;;;;5008864;28;20824;-79
2021/04/05 09:01:06;;;;;;;9.53;1.60;;;3.00;99.90;;;;;;5006135;28;20522;-79
2021/04/05 09:03:36;;;;;;;6.67;1.20;;;3.10;99.90;;;;;;4997600;28;20482;-80
2021/04/05 09:06:13;;;;;;;8.93;1.70;;;3.10;99.90;;;;;;4996058;28;20563;-80
2021/04/05 09:08:43;;;;;;;7.30;1.60;;;3.20;99.90;;;;;;5006627;28;20883;-79
2021/04/05 09:11:14;;;;;;;10.17;2.93;;;3.40;99.90;;;;;;5007746;28;20994;-78
2021/04/05 09:13:46;;;;;;;9.10;2.23;;;3.50;99.90;;;;;;5010063;28;20479;-78
2021/04/05 09:16:38;;;;;;;8.97;2.17;;;3.70;99.90;;;;;;5010348;28;20560;-78
2021/04/05 09:20:08;;;;;;;9.17;1.80;;;3.90;99.90;;;;;;5008447;28;20566;-79
2021/04/05 09:23:17;;;;;;;11.57;1.97;;;4.00;99.90;;;;;;4968723;28;21055;-78
2021/04/05 09:25:51;;;;;;;7.43;1.73;;;4.20;99.90;;;;;;4994329;28;20499;-79
2021/04/05 09:29:13;;;;;;;13.07;2.23;;;4.50;99.90;;;;;;5009189;28;21099;-78
2021/04/05 09:32:11;;;;;;;11.27;1.50;;;4.70;99.90;;;;;;5005938;28;20507;-79
2021/04/05 09:35:04;;;;;;;5.47;1.70;;;4.70;99.90;;;;;;5001218;28;20491;-80
2021/04/05 09:37:55;;;;;;;8.03;1.30;;;4.80;99.90;;;;;;5006164;28;20482;-79
2021/04/05 09:40:47;;;;;;;8.20;1.90;;;4.60;99.90;;;;;;5009057;28;20478;-79
2021/04/05 09:44:06;;;;;;;10.87;1.70;;;4.00;99.90;;;;;;4993386;28;20486;-79
2021/04/05 09:47:02;;;;;;;6.20;1.30;;;3.50;99.90;;;;;;4988630;28;20499;-79
2021/04/05 09:49:48;;;;;;;8.27;1.93;;;3.30;99.90;;;;;;4983992;28;20852;-79
2021/04/05 09:52:38;;;;;;;8.20;1.97;;;3.20;99.90;;;;;;5004693;28;21094;-79
2021/04/05 09:55:11;;;;;;;5.77;1.10;;;3.30;99.90;;;;;;4995821;28;20537;-79
2021/04/05 09:57:47;;;;;;;5.50;1.27;;;3.60;99.90;;;;;;5010431;28;20505;-78
2021/04/05 10:00:18;;;;;;;7.57;1.57;;;4.00;99.90;;;;;;5005605;28;20483;-79
2021/04/05 10:02:52;;;;;;;5.63;1.20;;;4.30;99.90;;;;;;5003161;28;20481;-79
2021/04/05 10:05:22;;;;;;;7.67;1.53;;;4.90;99.90;;;;;;5002554;28;20473;-79
2021/04/05 10:07:55;;;;;;;8.23;1.50;;;4.80;99.90;;;;;;4998540;28;20931;-79
2021/04/05 10:10:30;;;;;;;3.37;0.90;;;4.40;99.90;;;;;;5004902;28;20480;-79
2021/04/05 10:13:04;;;;;;;5.37;1.30;;;4.20;99.90;;;;;;5006070;28;20487;-79
2021/04/05 10:15:33;;;;;;;3.43;1.13;;;4.10;99.90;;;;;;5006742;28;21064;-79
2021/04/05 10:18:02;;;;;;;6.93;1.63;;;4.60;99.90;;;;;;5005049;28;20464;-79
2021/04/05 10:20:32;;;;;;;5.90;1.43;;;4.60;99.90;;;;;;5003783;28;21014;-79
2021/04/05 10:23:06;;;;;;;5.33;1.40;;;4.90;99.90;;;;;;5003041;28;20480;-79
2021/04/05 10:25:36;;;;;;;3.17;1.00;;;4.70;99.90;;;;;;5022079;28;20467;-79
2021/04/05 10:28:08;;;;;;;5.60;1.30;;;4.40;99.90;;;;;;5007455;28;20467;-79
2021/04/05 10:30:39;;;;;;;6.33;1.80;;;4.10;99.90;;;;;;5003342;28;20510;-79
2021/04/05 10:33:14;;;;;;;8.33;2.00;;;4.00;99.90;;;;;;5003349;28;20584;-79
2021/04/05 10:35:47;;;;;;;5.93;1.20;;;4.10;99.90;;;;;;4994156;28;20538;-78
2021/04/05 10:38:17;;;;;;;5.23;1.17;;;4.50;99.90;;;;;;5001454;28;20486;-79
2021/04/05 10:40:48;;;;;;;7.10;1.37;;;4.40;99.90;;;;;;5022471;28;20486;-79
2021/04/05 10:43:22;;;;;;;4.67;1.23;;;4.50;99.90;;;;;;5008400;28;20487;-78
2021/04/05 10:45:57;;;;;;;6.77;1.70;;;5.00;99.90;;;;;;5004930;28;21079;-78
2021/04/05 10:48:38;;;;;;;7.23;1.47;;;5.40;99.90;;;;;;4995025;28;20980;-79
2021/04/05 10:51:14;;;;;;;7.87;1.37;;;5.70;99.90;;;;;;5009985;28;20506;-79
2021/04/05 10:53:45;;;;;;;6.67;1.20;;;5.60;99.90;;;;;;5009833;28;20464;-77
2021/04/05 10:56:15;;;;;;;9.50;1.80;;;5.50;99.90;;;;;;4994697;28;20839;-78
2021/04/05 10:58:50;;;;;;;6.67;1.33;;;5.80;99.90;;;;;;5000124;28;20339;-79
2021/04/05 11:01:20;;;;;;;5.60;1.43;;;5.60;99.90;;;;;;5001893;28;20815;-79
2021/04/05 11:03:50;;;;;;;5.23;1.70;;;5.30;99.90;;;;;;4996070;28;20483;-79
2021/04/05 11:06:22;;;;;;;5.17;1.60;;;5.60;99.90;;;;;;5013126;28;20475;-79
2021/04/05 11:08:53;;;;;;;7.60;1.40;;;6.10;99.90;;;;;;5006108;28;20290;-79
2021/04/05 11:11:28;;;;;;;5.47;1.77;;;6.20;99.90;;;;;;5011682;28;20461;-78
2021/04/05 11:14:02;;;;;;;8.17;1.57;;;6.50;99.90;;;;;;5013441;28;20614;-78
2021/04/05 11:16:32;;;;;;;5.57;1.00;;;6.70;99.90;;;;;;5018549;28;20397;-79
2021/04/05 11:19:07;;;;;;;8.70;1.07;;;5.50;99.90;;;;;;5030235;28;20233;-79
2021/04/05 11:21:39;;;;;;;7.57;1.30;;;4.40;99.90;;;;;;5008555;28;20260;-79
2021/04/05 11:24:11;;;;;;;7.93;0.80;;;3.80;99.90;;;;;;5011342;28;20488;-79
2021/04/05 11:26:43;;;;;;;5.20;1.00;;;3.50;99.90;;;;;;5001903;28;20561;-79
2021/04/05 11:29:14;;;;;;;6.87;1.40;;;3.30;99.90;;;;;;5011403;28;20499;-79
2021/04/05 11:31:44;;;;;;;5.73;1.13;;;3.30;99.90;;;;;;5010813;28;21007;-78
2021/04/05 11:34:16;;;;;;;7.07;1.27;;;3.40;99.90;;;;;;5014344;28;20857;-79
2021/04/05 11:36:48;;;;;;;4.20;1.00;;;3.70;99.90;;;;;;5007790;28;20530;-79
2021/04/05 11:39:18;;;;;;;5.23;1.00;;;4.20;99.90;;;;;;5008339;28;20495;-79
2021/04/05 11:41:53;;;;;;;5.63;1.20;;;4.80;99.90;;;;;;5026606;28;21288;-79
2021/04/05 11:44:24;;;;;;;4.70;1.10;;;5.10;99.90;;;;;;5015672;28;20906;-79
2021/04/05 11:46:56;;;;;;;6.33;1.10;;;5.40;99.90;;;;;;5016254;28;20252;-78
2021/04/05 11:49:31;;;;;;;6.03;1.30;;;5.50;99.90;;;;;;5012088;28;20257;-78
2021/04/05 11:52:08;;;;;;;9.87;1.50;;;5.40;99.90;;;;;;5009170;28;20987;-79
2021/04/05 11:54:42;;;;;;;5.47;1.10;;;5.10;99.90;;;;;;5014090;28;20271;-79
2021/04/05 11:57:14;;;;;;;8.57;1.83;;;4.90;99.90;;;;;;5015520;28;20482;-79
2021/04/05 11:59:49;;;;;;;7.90;1.80;;;5.30;99.90;;;;;;5007919;28;20302;-78
2021/04/05 12:02:23;;;;;;;7.83;1.50;;;5.50;99.90;;;;;;5012185;28;20487;-79
2021/04/05 12:04:57;;;;;;;6.27;1.10;;;5.00;99.90;;;;;;5007909;28;20805;-78
2021/04/05 12:07:47;;;;;;;8.90;1.30;;;3.90;99.90;;;;;;5022289;28;20518;-79
2021/04/05 12:10:26;;;;;;;3.87;1.17;;;3.40;99.90;;;;;;5003071;28;21143;-79
2021/04/05 12:12:59;;;;;;;3.97;0.90;;;3.40;99.90;;;;;;5007833;28;21019;-79
2021/04/05 12:15:28;;;;;;;7.33;1.33;;;3.30;99.90;;;;;;5003463;28;21696;-80
2021/04/05 12:17:56;;;;;;;10.37;1.20;;;3.30;99.90;;;;;;5019853;28;20491;-78
2021/04/05 12:20:25;;;;;;;6.63;1.40;;;3.20;99.90;;;;;;5011434;28;20949;-79
2021/04/05 12:22:55;;;;;;;9.53;1.27;;;3.30;99.90;;;;;;5009469;28;20479;-80
2021/04/05 12:25:30;;;;;;;7.17;1.20;;;3.40;99.90;;;;;;5011065;28;20532;-79
2021/04/05 12:28:01;;;;;;;9.27;1.80;;;3.70;99.90;;;;;;5007411;28;21006;-79
2021/04/05 12:30:30;;;;;;;8.73;1.67;;;3.90;99.90;;;;;;5002470;28;20511;-79
2021/04/05 12:32:59;;;;;;;6.97;1.37;;;4.10;99.90;;;;;;5008071;28;20527;-78
2021/04/05 12:35:53;;;;;;;12.40;1.90;;;4.00;99.90;;;;;;5010312;28;20491;-80
2021/04/05 12:38:28;;;;;;;4.60;0.90;;;3.50;99.90;;;;;;5010094;28;20866;-79
2021/04/05 12:40:57;;;;;;;7.30;1.63;;;3.10;99.90;;;;;;5007227;28;20498;-79
2021/04/05 12:43:30;;;;;;;8.13;1.33;;;3.10;99.90;;;;;;5013561;28;20573;-79
2021/04/05 12:46:01;;;;;;;7.70;1.10;;;3.30;99.90;;;;;;5010255;28;20480;-79
2021/04/05 12:48:33;;;;;;;4.10;0.73;;;3.60;99.90;;;;;;5009118;28;20495;-79
2021/04/05 12:51:05;;;;;;;3.17;0.70;;;3.60;99.90;;;;;;5030297;28;20483;-79
2021/04/05 12:53:35;;;;;;;3.87;0.83;;;3.50;99.90;;;;;;5016596;28;20496;-79
2021/04/05 12:56:07;;;;;;;6.13;0.90;;;3.50;99.90;;;;;;5015071;28;20479;-79
2021/04/05 12:58:36;;;;;;;4.37;0.80;;;3.60;99.90;;;;;;5009778;28;20601;-79
2021/04/05 13:01:06;;;;;;;1.73;0.53;;;3.70;99.90;;;;;;5009566;28;20481;-79
2021/04/05 13:03:37;;;;;;;1.33;0.33;;;3.80;99.90;;;;;;5012744;28;20511;-79
2021/04/05 13:06:09;;;;;;;4.60;1.10;;;4.00;99.90;;;;;;5006005;28;20884;-79
2021/04/05 13:08:44;;;;;;;1.03;0.60;;;3.80;99.90;;;;;;5009817;28;20486;-79
2021/04/05 13:11:21;;;;;;;5.50;1.07;;;3.20;99.90;;;;;;5010102;28;20529;-78
2021/04/05 13:13:55;;;;;;;4.87;0.93;;;2.80;99.90;;;;;;5008349;28;20481;-79
2021/04/05 13:16:29;;;;;;;4.77;1.03;;;2.60;99.90;;;;;;5022852;28;20856;-80
2021/04/05 13:19:03;;;;;;;4.40;1.03;;;2.80;99.90;;;;;;5011076;28;20476;-79
2021/04/05 13:21:36;;;;;;;5.20;1.00;;;3.10;99.90;;;;;;4997905;28;20481;-78
2021/04/05 13:24:11;;;;;;;5.33;1.00;;;3.50;99.90;;;;;;5002038;28;20888;-79
2021/04/05 13:26:45;;;;;;;2.90;1.07;;;3.60;99.90;;;;;;5000117;28;20520;-78
2021/04/05 13:29:15;;;;;;;4.63;1.17;;;3.70;99.90;;;;;;5003078;28;20567;-80